sensor_id;sensor_type;location;lat;lon;timestamp;pressure;altitude;pressure_sealevel;temperature;humidity
19208;BME280;9737;59.466;18.036;2024-03-25T00:01:03;99460.44;;;-0.70;77.39
19208;BME280;9737;59.466;18.036;2024-03-25T00:03:31;99444.84;;;-0.72;77.21
19208;BME280;9737;59.466;18.036;2024-03-25T00:05:58;99433.69;;;-0.75;77.10
19208;BME280;9737;59.466;18.036;2024-03-25T00:08:25;99441.41;;;-0.72;77.35
19208;BME280;9737;59.466;18.036;2024-03-25T00:10:51;99455.28;;;-0.72;77.09
19208;BME280;9737;59.466;18.036;2024-03-25T00:13:17;99450.00;;;-0.70;77.66
19208;BME280;9737;59.466;18.036;2024-03-25T00:15:43;99457.06;;;-0.72;77.38
19208;BME280;9737;59.466;18.036;2024-03-25T00:18:09;99462.16;;;-0.69;77.52
19208;BME280;9737;59.466;18.036;2024-03-25T00:20:37;99446.63;;;-0.72;77.68
19208;BME280;9737;59.466;18.036;2024-03-25T00:23:03;99466.53;;;-0.70;77.72
19208;BME280;9737;59.466;18.036;2024-03-25T00:25:30;99453.53;;;-0.71;76.98
19208;BME280;9737;59.466;18.036;2024-03-25T00:27:56;99463.06;;;-0.70;77.67
19208;BME280;9737;59.466;18.036;2024-03-25T00:30:22;99438.41;;;-0.83;77.67
19208;BME280;9737;59.466;18.036;2024-03-25T00:32:50;99444.84;;;-0.72;77.33
19208;BME280;9737;59.466;18.036;2024-03-25T00:35:17;99464.69;;;-0.68;77.30
19208;BME280;9737;59.466;18.036;2024-03-25T00:37:45;99484.59;;;-0.65;77.24
19208;BME280;9737;59.466;18.036;2024-03-25T00:40:11;99463.06;;;-0.70;77.60
19208;BME280;9737;59.466;18.036;2024-03-25T00:42:38;99456.94;;;-0.69;77.36
19208;BME280;9737;59.466;18.036;2024-03-25T00:45:04;99454.44;;;-0.72;77.48
19208;BME280;9737;59.466;18.036;2024-03-25T00:47:31;99442.31;;;-0.73;77.55
19208;BME280;9737;59.466;18.036;2024-03-25T00:49:59;99444.06;;;-0.74;77.22
19208;BME280;9737;59.466;18.036;2024-03-25T00:52:25;99449.28;;;-0.74;77.44
19208;BME280;9737;59.466;18.036;2024-03-25T00:54:55;99457.84;;;-0.70;77.61
19208;BME280;9737;59.466;18.036;2024-03-25T00:57:22;99441.41;;;-0.72;77.18
19208;BME280;9737;59.466;18.036;2024-03-25T00:59:48;99430.25;;;-0.76;77.35
19208;BME280;9737;59.466;18.036;2024-03-25T01:02:15;99412.16;;;-0.80;77.07
19208;BME280;9737;59.466;18.036;2024-03-25T01:04:41;99414.00;;;-0.82;77.57
19208;BME280;9737;59.466;18.036;2024-03-25T01:07:07;99425.16;;;-0.79;77.34
19208;BME280;9737;59.466;18.036;2024-03-25T01:09:33;99426.00;;;-0.78;77.29
19208;BME280;9737;59.466;18.036;2024-03-25T01:12:01;99396.63;;;-0.83;77.25
19208;BME280;9737;59.466;18.036;2024-03-25T01:14:27;99419.06;;;-0.79;77.53
19208;BME280;9737;59.466;18.036;2024-03-25T01:16:53;99392.78;;;-0.95;77.62
19208;BME280;9737;59.466;18.036;2024-03-25T01:19:20;99420.00;;;-0.80;77.30
19208;BME280;9737;59.466;18.036;2024-03-25T01:21:46;99397.56;;;-0.84;77.77
19208;BME280;9737;59.466;18.036;2024-03-25T01:24:13;99404.47;;;-0.83;77.54
19208;BME280;9737;59.466;18.036;2024-03-25T01:26:39;99391.59;;;-0.88;77.70
19208;BME280;9737;59.466;18.036;2024-03-25T01:29:10;99391.66;;;-0.89;77.62
19208;BME280;9737;59.466;18.036;2024-03-25T01:31:36;99403.69;;;-0.85;77.48
19208;BME280;9737;59.466;18.036;2024-03-25T01:34:02;99406.22;;;-0.84;77.69
19208;BME280;9737;59.466;18.036;2024-03-25T01:36:33;99419.16;;;-0.81;77.20
19208;BME280;9737;59.466;18.036;2024-03-25T01:38:59;99418.31;;;-0.81;77.44
19208;BME280;9737;59.466;18.036;2024-03-25T01:41:25;99397.63;;;-0.86;77.62
19208;BME280;9737;59.466;18.036;2024-03-25T01:43:51;99407.06;;;-0.83;77.34
19208;BME280;9737;59.466;18.036;2024-03-25T01:46:20;99394.16;;;-0.86;77.35
19208;BME280;9737;59.466;18.036;2024-03-25T01:48:50;99383.81;;;-0.89;77.63
19208;BME280;9737;59.466;18.036;2024-03-25T01:51:17;99370.84;;;-0.91;77.37
19208;BME280;9737;59.466;18.036;2024-03-25T01:53:44;99388.06;;;-0.87;77.68
19208;BME280;9737;59.466;18.036;2024-03-25T01:56:13;99417.47;;;-0.82;77.45
19208;BME280;9737;59.466;18.036;2024-03-25T01:58:40;99380.28;;;-0.88;77.45
19208;BME280;9737;59.466;18.036;2024-03-25T02:01:06;99368.22;;;-0.91;77.69
19208;BME280;9737;59.466;18.036;2024-03-25T02:03:35;99386.31;;;-0.86;77.75
19208;BME280;9737;59.466;18.036;2024-03-25T02:06:03;99371.75;;;-0.92;77.68
19208;BME280;9737;59.466;18.036;2024-03-25T02:08:33;99350.16;;;-0.96;77.36
19208;BME280;9737;59.466;18.036;2024-03-25T02:10:59;99352.00;;;-0.98;77.42
19208;BME280;9737;59.466;18.036;2024-03-25T02:13:26;99348.47;;;-0.97;77.58
19208;BME280;9737;59.466;18.036;2024-03-25T02:15:52;99339.84;;;-0.99;77.34
19208;BME280;9737;59.466;18.036;2024-03-25T02:18:19;99342.53;;;-1.00;77.82
19208;BME280;9737;59.466;18.036;2024-03-25T02:20:47;99352.00;;;-0.98;77.38
19208;BME280;9737;59.466;18.036;2024-03-25T02:23:13;99350.16;;;-0.96;77.66
19208;BME280;9737;59.466;18.036;2024-03-25T02:25:42;99348.59;;;-1.00;77.32
19208;BME280;9737;59.466;18.036;2024-03-25T02:28:10;99348.47;;;-0.97;77.40
19208;BME280;9737;59.466;18.036;2024-03-25T02:30:36;99348.47;;;-0.97;77.56
19208;BME280;9737;59.466;18.036;2024-03-25T02:33:03;99334.78;;;-1.02;77.75
19208;BME280;9737;59.466;18.036;2024-03-25T02:35:30;99316.78;;;-1.08;77.44
19208;BME280;9737;59.466;18.036;2024-03-25T02:37:56;99318.41;;;-1.05;77.65
19208;BME280;9737;59.466;18.036;2024-03-25T02:40:23;99312.34;;;-1.06;77.93
19208;BME280;9737;59.466;18.036;2024-03-25T02:42:49;99321.94;;;-1.06;77.68
19208;BME280;9737;59.466;18.036;2024-03-25T02:45:17;99314.09;;;-1.06;77.64
19208;BME280;9737;59.466;18.036;2024-03-25T02:47:45;99301.25;;;-1.11;77.30
19208;BME280;9737;59.466;18.036;2024-03-25T02:50:11;99287.38;;;-1.11;77.73
19208;BME280;9737;59.466;18.036;2024-03-25T02:52:38;99294.34;;;-1.12;77.33
19208;BME280;9737;59.466;18.036;2024-03-25T02:55:05;99299.50;;;-1.10;77.74
19208;BME280;9737;59.466;18.036;2024-03-25T02:57:31;99307.25;;;-1.09;77.54
19208;BME280;9737;59.466;18.036;2024-03-25T02:59:57;99294.34;;;-1.12;77.73
19208;BME280;9737;59.466;18.036;2024-03-25T03:02:25;99279.72;;;-1.16;77.64
19208;BME280;9737;59.466;18.036;2024-03-25T03:04:51;99284.81;;;-1.13;77.73
19208;BME280;9737;59.466;18.036;2024-03-25T03:07:17;99282.28;;;-1.14;77.77
19208;BME280;9737;59.466;18.036;2024-03-25T03:09:44;99293.56;;;-1.14;77.48
19208;BME280;9737;59.466;18.036;2024-03-25T03:12:10;99292.66;;;-1.13;77.59
19208;BME280;9737;59.466;18.036;2024-03-25T03:14:36;99295.25;;;-1.13;77.84
19208;BME280;9737;59.466;18.036;2024-03-25T03:17:03;99282.28;;;-1.14;77.80
19208;BME280;9737;59.466;18.036;2024-03-25T03:19:31;99268.63;;;-1.21;77.63
19208;BME280;9737;59.466;18.036;2024-03-25T03:21:57;99281.38;;;-1.13;77.69
19208;BME280;9737;59.466;18.036;2024-03-25T03:24:23;99290.03;;;-1.13;77.48
19208;BME280;9737;59.466;18.036;2024-03-25T03:26:50;99277.97;;;-1.15;77.40
19208;BME280;9737;59.466;18.036;2024-03-25T03:29:16;99279.72;;;-1.16;77.83
19208;BME280;9737;59.466;18.036;2024-03-25T03:31:43;99263.28;;;-1.18;77.92
19208;BME280;9737;59.466;18.036;2024-03-25T03:34:09;99271.09;;;-1.18;77.41
19208;BME280;9737;59.466;18.036;2024-03-25T03:36:36;99272.81;;;-1.17;77.49
19208;BME280;9737;59.466;18.036;2024-03-25T03:39:03;99265.03;;;-1.18;77.79
19208;BME280;9737;59.466;18.036;2024-03-25T03:41:29;99279.72;;;-1.16;77.49
19208;BME280;9737;59.466;18.036;2024-03-25T03:43:55;99282.28;;;-1.14;77.79
19208;BME280;9737;59.466;18.036;2024-03-25T03:46:21;99281.44;;;-1.15;77.43
19208;BME280;9737;59.466;18.036;2024-03-25T03:48:48;99264.41;;;-1.23;77.80
19208;BME280;9737;59.466;18.036;2024-03-25T03:51:14;99284.94;;;-1.16;77.46
19208;BME280;9737;59.466;18.036;2024-03-25T03:53:41;99273.66;;;-1.16;77.45
19208;BME280;9737;59.466;18.036;2024-03-25T03:56:08;99273.72;;;-1.18;77.88
19208;BME280;9737;59.466;18.036;2024-03-25T03:58:34;99262.50;;;-1.20;77.68
19208;BME280;9737;59.466;18.036;2024-03-25T04:01:01;99278.88;;;-1.16;77.82
19208;BME280;9737;59.466;18.036;2024-03-25T04:03:27;99265.88;;;-1.18;77.87
19208;BME280;9737;59.466;18.036;2024-03-25T04:05:53;99257.28;;;-1.20;78.02
19208;BME280;9737;59.466;18.036;2024-03-25T04:08:19;99253.91;;;-1.22;77.44
19208;BME280;9737;59.466;18.036;2024-03-25T04:10:47;99247.06;;;-1.25;77.59
19208;BME280;9737;59.466;18.036;2024-03-25T04:13:14;99249.53;;;-1.21;77.44
19208;BME280;9737;59.466;18.036;2024-03-25T04:15:41;99257.34;;;-1.21;78.00
19208;BME280;9737;59.466;18.036;2024-03-25T04:18:07;99256.50;;;-1.22;77.49
19208;BME280;9737;59.466;18.036;2024-03-25T04:20:36;99279.72;;;-1.16;77.75
19208;BME280;9737;59.466;18.036;2024-03-25T04:23:03;99265.88;;;-1.18;77.54
19208;BME280;9737;59.466;18.036;2024-03-25T04:25:30;99260.75;;;-1.19;77.57
19208;BME280;9737;59.466;18.036;2024-03-25T04:27:58;99273.66;;;-1.16;77.50
19208;BME280;9737;59.466;18.036;2024-03-25T04:30:24;99258.97;;;-1.19;77.86
19208;BME280;9737;59.466;18.036;2024-03-25T04:32:50;99261.59;;;-1.19;77.85
19208;BME280;9737;59.466;18.036;2024-03-25T04:35:17;99261.53;;;-1.17;77.57
19208;BME280;9737;59.466;18.036;2024-03-25T04:37:43;99274.50;;;-1.16;77.76
19208;BME280;9737;59.466;18.036;2024-03-25T04:40:11;99277.97;;;-1.15;77.55
19208;BME280;9737;59.466;18.036;2024-03-25T04:42:37;99255.66;;;-1.22;77.45
19208;BME280;9737;59.466;18.036;2024-03-25T04:45:05;99276.22;;;-1.15;77.64
19208;BME280;9737;59.466;18.036;2024-03-25T04:47:32;99277.09;;;-1.16;77.69
19208;BME280;9737;59.466;18.036;2024-03-25T04:49:58;99259.81;;;-1.18;77.98
19208;BME280;9737;59.466;18.036;2024-03-25T04:52:24;99274.50;;;-1.16;77.72
19208;BME280;9737;59.466;18.036;2024-03-25T04:54:50;99278.84;;;-1.15;77.88
19208;BME280;9737;59.466;18.036;2024-03-25T04:57:17;99291.75;;;-1.12;78.04
19208;BME280;9737;59.466;18.036;2024-03-25T04:59:43;99297.81;;;-1.11;77.79
19208;BME280;9737;59.466;18.036;2024-03-25T05:02:11;99322.66;;;-1.03;77.87
19208;BME280;9737;59.466;18.036;2024-03-25T05:04:37;99327.94;;;-1.04;77.50
19208;BME280;9737;59.466;18.036;2024-03-25T05:07:03;99318.47;;;-1.07;77.61
19208;BME280;9737;59.466;18.036;2024-03-25T05:09:29;99321.94;;;-1.06;77.50
19208;BME280;9737;59.466;18.036;2024-03-25T05:11:56;99322.78;;;-1.06;77.61
19208;BME280;9737;59.466;18.036;2024-03-25T05:14:22;99319.25;;;-1.05;77.80
19208;BME280;9737;59.466;18.036;2024-03-25T05:16:48;99332.16;;;-1.02;78.02
19208;BME280;9737;59.466;18.036;2024-03-25T05:19:16;99336.47;;;-1.01;77.85
19208;BME280;9737;59.466;18.036;2024-03-25T05:21:42;99363.06;;;-0.93;77.94
19208;BME280;9737;59.466;18.036;2024-03-25T05:24:08;99382.91;;;-0.88;77.83
19208;BME280;9737;59.466;18.036;2024-03-25T05:26:34;99381.22;;;-0.89;78.10
19208;BME280;9737;59.466;18.036;2024-03-25T05:29:01;99381.22;;;-0.89;77.91
19208;BME280;9737;59.466;18.036;2024-03-25T05:31:27;99381.22;;;-0.89;77.85
19208;BME280;9737;59.466;18.036;2024-03-25T05:33:53;99376.13;;;-0.93;77.94
19208;BME280;9737;59.466;18.036;2024-03-25T05:36:21;99383.81;;;-0.89;77.80
19208;BME280;9737;59.466;18.036;2024-03-25T05:38:47;99385.53;;;-0.88;77.97
19208;BME280;9737;59.466;18.036;2024-03-25T05:41:13;99401.84;;;-0.83;77.80
19208;BME280;9737;59.466;18.036;2024-03-25T05:43:40;99445.78;;;-0.73;77.81
19208;BME280;9737;59.466;18.036;2024-03-25T05:46:06;99468.16;;;-0.67;77.84
19208;BME280;9737;59.466;18.036;2024-03-25T05:48:32;99490.53;;;-0.62;77.93
19208;BME280;9737;59.466;18.036;2024-03-25T05:50:59;99486.16;;;-0.61;78.04
19208;BME280;9737;59.466;18.036;2024-03-25T05:53:28;99493.22;;;-0.63;77.88
19208;BME280;9737;59.466;18.036;2024-03-25T05:55:54;99512.97;;;-0.56;78.08
19208;BME280;9737;59.466;18.036;2024-03-25T05:58:21;99532.81;;;-0.52;77.70
19208;BME280;9737;59.466;18.036;2024-03-25T06:00:47;99536.13;;;-0.48;78.13
19208;BME280;9737;59.466;18.036;2024-03-25T06:03:14;99553.44;;;-0.46;78.21
19208;BME280;9737;59.466;18.036;2024-03-25T06:05:40;99579.28;;;-0.40;77.46
19208;BME280;9737;59.466;18.036;2024-03-25T06:08:07;99574.22;;;-0.43;77.87
19208;BME280;9737;59.466;18.036;2024-03-25T06:10:38;99591.31;;;-0.36;78.00
19208;BME280;9737;59.466;18.036;2024-03-25T06:13:04;99585.56;;;-0.44;77.75
19208;BME280;9737;59.466;18.036;2024-03-25T06:15:30;99629.22;;;-0.25;77.50
19208;BME280;9737;59.466;18.036;2024-03-25T06:17:57;99661.19;;;-0.19;77.60
19208;BME280;9737;59.466;18.036;2024-03-25T06:20:23;99664.56;;;-0.17;78.11
19208;BME280;9737;59.466;18.036;2024-03-25T06:22:49;99699.94;;;-0.08;77.94
19208;BME280;9737;59.466;18.036;2024-03-25T06:25:16;99722.28;;;-0.01;77.83
19208;BME280;9737;59.466;18.036;2024-03-25T06:27:44;99749.97;;;0.05;78.24
19208;BME280;9737;59.466;18.036;2024-03-25T06:30:11;99784.41;;;0.14;77.99
19208;BME280;9737;59.466;18.036;2024-03-25T06:32:37;99817.25;;;0.21;77.70
19208;BME280;9737;59.466;18.036;2024-03-25T06:35:06;99800.84;;;0.18;77.67
19208;BME280;9737;59.466;18.036;2024-03-25T06:37:32;99840.50;;;0.29;78.12
19208;BME280;9737;59.466;18.036;2024-03-25T06:39:59;99888.31;;;0.33;78.24
19208;BME280;9737;59.466;18.036;2024-03-25T06:42:25;99949.38;;;0.53;77.97
19208;BME280;9737;59.466;18.036;2024-03-25T06:44:52;99945.84;;;0.54;78.28
19208;BME280;9737;59.466;18.036;2024-03-25T06:47:18;99978.72;;;0.61;77.81
19208;BME280;9737;59.466;18.036;2024-03-25T06:49:45;100007.97;;;0.71;78.08
19208;BME280;9737;59.466;18.036;2024-03-25T06:52:11;100046.88;;;0.80;78.16
19208;BME280;9737;59.466;18.036;2024-03-25T06:54:40;100050.41;;;0.79;78.23
19208;BME280;9737;59.466;18.036;2024-03-25T06:57:06;100059.00;;;0.83;78.18
19208;BME280;9737;59.466;18.036;2024-03-25T06:59:32;100076.31;;;0.87;78.07
19208;BME280;9737;59.466;18.036;2024-03-25T07:02:00;100124.72;;;0.99;77.88
19208;BME280;9737;59.466;18.036;2024-03-25T07:04:26;100144.69;;;1.01;77.92
19208;BME280;9737;59.466;18.036;2024-03-25T07:06:52;100119.47;;;0.99;78.01
19208;BME280;9737;59.466;18.036;2024-03-25T07:09:18;100166.25;;;1.08;77.78
19208;BME280;9737;59.466;18.036;2024-03-25T07:11:44;100150.66;;;1.05;77.98
19208;BME280;9737;59.466;18.036;2024-03-25T07:14:11;100157.59;;;1.06;77.98
19208;BME280;9737;59.466;18.036;2024-03-25T07:16:37;100229.28;;;1.27;78.12
19208;BME280;9737;59.466;18.036;2024-03-25T07:19:05;100239.78;;;1.27;78.18
19208;BME280;9737;59.466;18.036;2024-03-25T07:21:31;100258.72;;;1.33;78.37
19208;BME280;9737;59.466;18.036;2024-03-25T07:23:57;100293.34;;;1.41;78.13
19208;BME280;9737;59.466;18.036;2024-03-25T07:26:23;100309.78;;;1.46;78.49
19208;BME280;9737;59.466;18.036;2024-03-25T07:28:50;100353.13;;;1.55;77.84
19208;BME280;9737;59.466;18.036;2024-03-25T07:31:16;100372.09;;;1.62;77.71
19208;BME280;9737;59.466;18.036;2024-03-25T07:33:42;100406.66;;;1.71;78.35
19208;BME280;9737;59.466;18.036;2024-03-25T07:36:10;100446.66;;;1.78;78.14
19208;BME280;9737;59.466;18.036;2024-03-25T07:38:36;100503.78;;;1.93;78.03
19208;BME280;9737;59.466;18.036;2024-03-25T07:41:03;100510.63;;;1.97;78.06
19208;BME280;9737;59.466;18.036;2024-03-25T07:43:29;100571.31;;;2.11;78.22
19208;BME280;9737;59.466;18.036;2024-03-25T07:45:55;100633.72;;;2.27;77.96
19208;BME280;9737;59.466;18.036;2024-03-25T07:48:22;100672.75;;;2.37;78.28
19208;BME280;9737;59.466;18.036;2024-03-25T07:50:48;100687.56;;;2.38;78.18
19208;BME280;9737;59.466;18.036;2024-03-25T07:53:15;100648.50;;;2.29;78.37
19208;BME280;9737;59.466;18.036;2024-03-25T07:55:42;100676.28;;;2.36;78.16
19208;BME280;9737;59.466;18.036;2024-03-25T07:58:08;100801.22;;;2.67;78.13
19208;BME280;9737;59.466;18.036;2024-03-25T08:00:34;100939.25;;;3.02;78.36
19208;BME280;9737;59.466;18.036;2024-03-25T08:03:01;101061.81;;;3.31;78.07
19208;BME280;9737;59.466;18.036;2024-03-25T08:05:29;101078.22;;;3.37;78.06
19208;BME280;9737;59.466;18.036;2024-03-25T08:07:56;101062.66;;;3.31;77.86
19208;BME280;9737;59.466;18.036;2024-03-25T08:10:23;101145.19;;;3.54;78.23
19208;BME280;9737;59.466;18.036;2024-03-25T08:12:49;101283.53;;;3.87;78.24
19208;BME280;9737;59.466;18.036;2024-03-25T08:15:16;101340.94;;;4.02;78.14
19208;BME280;9737;59.466;18.036;2024-03-25T08:17:42;101427.19;;;4.22;78.04
19208;BME280;9737;59.466;18.036;2024-03-25T08:20:08;101367.09;;;4.09;78.35
19208;BME280;9737;59.466;18.036;2024-03-25T08:22:35;101309.69;;;3.92;77.99
19208;BME280;9737;59.466;18.036;2024-03-25T08:25:01;101338.44;;;3.98;78.04
19208;BME280;9737;59.466;18.036;2024-03-25T08:27:29;101403.69;;;4.16;78.02
19208;BME280;9737;59.466;18.036;2024-03-25T08:29:55;101418.50;;;4.20;77.97
19208;BME280;9737;59.466;18.036;2024-03-25T08:32:21;101417.53;;;4.23;78.00
19208;BME280;9737;59.466;18.036;2024-03-25T08:34:49;101420.25;;;4.20;78.31
19208;BME280;9737;59.466;18.036;2024-03-25T08:37:15;101516.94;;;4.44;78.40
19208;BME280;9737;59.466;18.036;2024-03-25T08:39:41;101555.28;;;4.54;77.75
19208;BME280;9737;59.466;18.036;2024-03-25T08:42:07;101608.53;;;4.65;78.41
19208;BME280;9737;59.466;18.036;2024-03-25T08:44:35;101615.53;;;4.66;77.64
19208;BME280;9737;59.466;18.036;2024-03-25T08:47:01;101674.75;;;4.83;78.25
19208;BME280;9737;59.466;18.036;2024-03-25T08:49:27;101775.03;;;5.09;77.84
19208;BME280;9737;59.466;18.036;2024-03-25T08:51:54;101675.63;;;4.83;77.85
19208;BME280;9737;59.466;18.036;2024-03-25T08:54:20;101777.72;;;5.08;77.91
19208;BME280;9737;59.466;18.036;2024-03-25T08:56:46;101814.59;;;5.09;77.76
19208;BME280;9737;59.466;18.036;2024-03-25T08:59:12;102011.75;;;5.66;78.57
19208;BME280;9737;59.466;18.036;2024-03-25T09:01:40;102123.69;;;5.93;77.99
19208;BME280;9737;59.466;18.036;2024-03-25T09:04:06;102184.06;;;6.08;77.93
19208;BME280;9737;59.466;18.036;2024-03-25T09:06:33;102289.06;;;6.33;77.78
19208;BME280;9737;59.466;18.036;2024-03-25T09:08:59;102319.69;;;6.41;77.77
19208;BME280;9737;59.466;18.036;2024-03-25T09:11:25;102360.00;;;6.49;78.23
19208;BME280;9737;59.466;18.036;2024-03-25T09:13:51;102460.69;;;6.76;77.82
19208;BME280;9737;59.466;18.036;2024-03-25T09:16:18;102416.03;;;6.64;77.68
19208;BME280;9737;59.466;18.036;2024-03-25T09:18:45;102404.63;;;6.62;77.91
19208;BME280;9737;59.466;18.036;2024-03-25T09:21:11;102455.47;;;6.73;78.36
19208;BME280;9737;59.466;18.036;2024-03-25T09:23:38;102722.81;;;7.41;77.77
19208;BME280;9737;59.466;18.036;2024-03-25T09:26:04;102888.81;;;7.77;77.87
19208;BME280;9737;59.466;18.036;2024-03-25T09:28:30;102960.84;;;7.95;77.73
19208;BME280;9737;59.466;18.036;2024-03-25T09:30:56;102986.34;;;8.00;77.95
19208;BME280;9737;59.466;18.036;2024-03-25T09:33:22;102850.19;;;7.67;78.05
19208;BME280;9737;59.466;18.036;2024-03-25T09:35:54;102605.34;;;7.09;77.71
19208;BME280;9737;59.466;18.036;2024-03-25T09:38:20;102824.72;;;7.62;78.05
19208;BME280;9737;59.466;18.036;2024-03-25T09:40:46;102736.91;;;7.41;77.67
19208;BME280;9737;59.466;18.036;2024-03-25T09:43:24;102808.03;;;7.58;77.75
19208;BME280;9737;59.466;18.036;2024-03-25T09:45:51;102833.50;;;7.64;77.97
19208;BME280;9737;59.466;18.036;2024-03-25T09:48:19;102716.69;;;7.39;78.05
19208;BME280;9737;59.466;18.036;2024-03-25T09:50:47;102762.38;;;7.47;78.01
19208;BME280;9737;59.466;18.036;2024-03-25T09:53:16;102844.03;;;7.67;77.79
19208;BME280;9737;59.466;18.036;2024-03-25T09:55:42;103266.88;;;8.71;77.83
19208;BME280;9737;59.466;18.036;2024-03-25T09:58:09;103228.22;;;8.58;77.62
19208;BME280;9737;59.466;18.036;2024-03-25T10:00:36;103333.78;;;8.85;77.48
19208;BME280;9737;59.466;18.036;2024-03-25T10:03:02;103534.69;;;9.31;77.36
19208;BME280;9737;59.466;18.036;2024-03-25T10:05:29;103771.91;;;9.90;77.73
19208;BME280;9737;59.466;18.036;2024-03-25T10:07:55;103983.91;;;10.39;77.25
19208;BME280;9737;59.466;18.036;2024-03-25T10:10:23;103976.84;;;10.36;77.33
19208;BME280;9737;59.466;18.036;2024-03-25T10:12:49;103846.06;;;10.07;77.73
19208;BME280;9737;59.466;18.036;2024-03-25T10:15:15;103790.53;;;9.90;77.95
19208;BME280;9737;59.466;18.036;2024-03-25T10:17:42;103551.47;;;9.35;77.84
19208;BME280;9737;59.466;18.036;2024-03-25T10:20:13;103316.25;;;8.78;77.54
19208;BME280;9737;59.466;18.036;2024-03-25T10:22:42;103150.81;;;8.39;77.40
19208;BME280;9737;59.466;18.036;2024-03-25T10:25:19;103274.81;;;8.71;77.53
19208;BME280;9737;59.466;18.036;2024-03-25T10:27:54;103102.34;;;8.29;77.44
19208;BME280;9737;59.466;18.036;2024-03-25T10:30:21;102978.44;;;7.99;77.46
19208;BME280;9737;59.466;18.036;2024-03-25T10:32:57;102799.25;;;7.56;77.66
19208;BME280;9737;59.466;18.036;2024-03-25T10:35:25;102780.84;;;7.50;77.12
19208;BME280;9737;59.466;18.036;2024-03-25T10:37:55;102717.66;;;7.35;77.33
19208;BME280;9737;59.466;18.036;2024-03-25T10:40:23;102436.25;;;6.66;77.43
19208;BME280;9737;59.466;18.036;2024-03-25T10:42:56;102338.06;;;6.46;77.38
19208;BME280;9737;59.466;18.036;2024-03-25T10:45:27;102217.38;;;6.14;77.32
19208;BME280;9737;59.466;18.036;2024-03-25T10:47:57;102152.63;;;5.98;77.38
19208;BME280;9737;59.466;18.036;2024-03-25T10:50:26;102156.09;;;6.00;76.54
19208;BME280;9737;59.466;18.036;2024-03-25T10:52:54;102134.22;;;5.95;76.96
19208;BME280;9737;59.466;18.036;2024-03-25T10:55:21;102101.81;;;5.88;76.99
19208;BME280;9737;59.466;18.036;2024-03-25T10:57:48;102023.13;;;5.68;76.49
19208;BME280;9737;59.466;18.036;2024-03-25T11:00:16;101995.22;;;5.59;76.48
19208;BME280;9737;59.466;18.036;2024-03-25T11:02:43;102062.47;;;5.79;77.17
19208;BME280;9737;59.466;18.036;2024-03-25T11:05:10;101964.56;;;5.55;76.56
19208;BME280;9737;59.466;18.036;2024-03-25T11:07:38;101999.69;;;5.57;76.45
19208;BME280;9737;59.466;18.036;2024-03-25T11:10:05;101933.06;;;5.48;76.35
19208;BME280;9737;59.466;18.036;2024-03-25T11:12:32;101902.59;;;5.38;76.68
19208;BME280;9737;59.466;18.036;2024-03-25T11:15:01;101880.66;;;5.36;76.61
19208;BME280;9737;59.466;18.036;2024-03-25T11:17:29;101988.19;;;5.60;76.56
19208;BME280;9737;59.466;18.036;2024-03-25T11:20:06;101960.22;;;5.53;76.92
19208;BME280;9737;59.466;18.036;2024-03-25T11:22:32;101925.25;;;5.45;76.39
19208;BME280;9737;59.466;18.036;2024-03-25T11:25:05;101977.78;;;5.54;76.68
19208;BME280;9737;59.466;18.036;2024-03-25T11:27:33;101991.63;;;5.62;76.37
19208;BME280;9737;59.466;18.036;2024-03-25T11:30:00;102066.78;;;5.81;76.86
19208;BME280;9737;59.466;18.036;2024-03-25T11:32:26;102082.53;;;5.84;76.42
19208;BME280;9737;59.466;18.036;2024-03-25T11:34:54;102079.94;;;5.83;76.23
19208;BME280;9737;59.466;18.036;2024-03-25T11:37:20;102159.47;;;6.05;76.42
19208;BME280;9737;59.466;18.036;2024-03-25T11:39:47;102139.38;;;5.99;76.34
19208;BME280;9737;59.466;18.036;2024-03-25T11:42:13;102191.84;;;6.13;75.86
19208;BME280;9737;59.466;18.036;2024-03-25T11:44:39;102082.50;;;5.86;76.69
19208;BME280;9737;59.466;18.036;2024-03-25T11:47:07;102138.50;;;5.99;76.17
19208;BME280;9737;59.466;18.036;2024-03-25T11:49:33;102100.03;;;5.88;76.12
19208;BME280;9737;59.466;18.036;2024-03-25T11:52:01;102125.34;;;5.97;76.45
19208;BME280;9737;59.466;18.036;2024-03-25T11:54:27;102012.56;;;5.68;76.58
19208;BME280;9737;59.466;18.036;2024-03-25T11:56:54;101985.50;;;5.62;76.59
19208;BME280;9737;59.466;18.036;2024-03-25T11:59:20;101999.41;;;5.67;76.42
19208;BME280;9737;59.466;18.036;2024-03-25T12:01:46;102039.66;;;5.75;75.47
19208;BME280;9737;59.466;18.036;2024-03-25T12:04:17;102078.09;;;5.86;75.98
19208;BME280;9737;59.466;18.036;2024-03-25T12:06:44;101985.44;;;5.63;76.29
19208;BME280;9737;59.466;18.036;2024-03-25T12:09:12;102087.75;;;5.87;75.54
19208;BME280;9737;59.466;18.036;2024-03-25T12:11:38;102100.03;;;5.90;75.44
19208;BME280;9737;59.466;18.036;2024-03-25T12:14:04;102089.47;;;5.88;76.12
19208;BME280;9737;59.466;18.036;2024-03-25T12:16:31;102112.28;;;5.93;75.70
19208;BME280;9737;59.466;18.036;2024-03-25T12:18:57;102146.31;;;6.03;75.30
19208;BME280;9737;59.466;18.036;2024-03-25T12:21:23;102100.22;;;5.82;76.10
19208;BME280;9737;59.466;18.036;2024-03-25T12:23:49;102062.38;;;5.82;75.40
19208;BME280;9737;59.466;18.036;2024-03-25T12:26:17;102033.44;;;5.77;76.06
19208;BME280;9737;59.466;18.036;2024-03-25T12:28:43;102054.50;;;5.80;76.06
19208;BME280;9737;59.466;18.036;2024-03-25T12:31:10;102039.63;;;5.76;75.75
19208;BME280;9737;59.466;18.036;2024-03-25T12:33:40;102148.06;;;6.03;75.48
19208;BME280;9737;59.466;18.036;2024-03-25T12:36:06;102170.75;;;6.11;75.25
19208;BME280;9737;59.466;18.036;2024-03-25T12:38:33;102325.72;;;6.46;75.90
19208;BME280;9737;59.466;18.036;2024-03-25T12:41:03;102573.66;;;7.06;75.29
19208;BME280;9737;59.466;18.036;2024-03-25T12:43:33;102820.16;;;7.68;75.48
19208;BME280;9737;59.466;18.036;2024-03-25T12:46:00;103074.06;;;8.30;75.67
19208;BME280;9737;59.466;18.036;2024-03-25T12:48:26;103383.88;;;9.04;75.69
19208;BME280;9737;59.466;18.036;2024-03-25T12:50:53;103732.09;;;9.87;75.12
19208;BME280;9737;59.466;18.036;2024-03-25T12:53:19;103898.06;;;10.28;75.11
19208;BME280;9737;59.466;18.036;2024-03-25T12:55:45;104370.34;;;11.37;75.58
19208;BME280;9737;59.466;18.036;2024-03-25T12:58:12;104534.25;;;11.78;75.18